Time;durP1;ratioP1;P1;durP2;ratioP2;P2;SDS_P1;SDS_P2;PMS_P1;PMS_P2;Temp;Humidity;BMP_temperature;BMP_pressure;BME280_temperature;BME280_humidity;BME280_pressure;Samples;Min_cycle;Max_cycle;Signal;HPM_P1;HPM_P2
2022/06/14 00:00:55;;;;;;;;;;;20.30;73.50;;;;;;5045694;28;86937;-48
2022/06/14 00:03:23;;;;;;;;;;;20.30;73.20;;;;;;5048532;28;87349;-46
2022/06/14 00:05:49;;;;;;;;;;;20.30;73.10;;;;;;5046143;28;86416;-47
2022/06/14 00:08:15;;;;;;;;;;;20.30;73.20;;;;;;5045849;28;87087;-48
2022/06/14 00:10:41;;;;;;;;;;;20.30;73.10;;;;;;5045200;28;89187;-48
2022/06/14 00:13:06;;;;;;;;;;;20.30;73.20;;;;;;5044603;28;88030;-47
2022/06/14 00:15:33;;;;;;;;;;;20.30;73.10;;;;;;5045698;27;88411;-47
2022/06/14 00:17:58;;;;;;;;;;;20.30;73.10;;;;;;5045277;28;87949;-45
2022/06/14 00:20:24;;;;;;;;;;;20.20;73.10;;;;;;5045725;28;86998;-46
2022/06/14 00:22:49;;;;;;;;;;;20.20;73.20;;;;;;5045741;28;86940;-47
2022/06/14 00:25:21;;;;;;;;;;;20.20;73.20;;;;;;5047788;28;89279;-48
2022/06/14 00:27:46;;;;;;;;;;;20.20;73.20;;;;;;5045460;28;87364;-48
2022/06/14 00:30:12;;;;;;;;;;;20.20;73.20;;;;;;5045534;28;87312;-46
2022/06/14 00:32:37;;;;;;;;;;;20.20;73.00;;;;;;5045219;28;87237;-48
2022/06/14 00:35:03;;;;;;;;;;;20.20;73.10;;;;;;5045387;28;87424;-47
2022/06/14 00:37:28;;;;;;;;;;;20.20;73.10;;;;;;5044392;28;88069;-45
2022/06/14 00:39:54;;;;;;;;;;;20.10;73.20;;;;;;5045391;28;87076;-47
2022/06/14 00:42:21;;;;;;;;;;;20.10;73.20;;;;;;5045227;28;87405;-48
2022/06/14 00:45:00;;;;;;;;;;;20.10;73.10;;;;;;5047578;28;89317;-46
2022/06/14 00:47:26;;;;;;;;;;;20.10;73.10;;;;;;5045149;27;87402;-45
2022/06/14 00:49:56;;;;;;;;;;;20.10;73.20;;;;;;5044605;28;88330;-45
2022/06/14 00:52:32;;;;;;;;;;;20.10;73.20;;;;;;5044723;28;89397;-48
2022/06/14 00:55:01;;;;;;;;;;;20.10;73.20;;;;;;5045461;27;87389;-47
2022/06/14 00:57:29;;;;;;;;;;;20.00;73.30;;;;;;5044589;28;87145;-46
2022/06/14 01:00:01;;;;;;;;;;;20.00;73.20;;;;;;5044853;28;87036;-47
2022/06/14 01:02:29;;;;;;;;;;;20.00;73.20;;;;;;5044426;27;87903;-45
2022/06/14 01:04:56;;;;;;;;;;;20.00;73.30;;;;;;5044355;28;87741;-45
2022/06/14 01:07:29;;;;;;;;;;;19.90;73.30;;;;;;5047824;28;87098;-48
2022/06/14 01:10:01;;;;;;;;;;;20.00;73.20;;;;;;5043437;27;89963;-47
2022/06/14 01:12:29;;;;;;;;;;;20.00;73.10;;;;;;5044149;28;87386;-46
2022/06/14 01:15:04;;;;;;;;;;;19.90;73.00;;;;;;5044660;27;87411;-47
2022/06/14 01:17:35;;;;;;;;;;;19.90;73.10;;;;;;5043993;28;88820;-46
2022/06/14 01:20:00;;;;;;;;;;;19.90;73.20;;;;;;5045285;28;86483;-46
2022/06/14 01:22:27;;;;;;;;;;;19.90;73.20;;;;;;5044751;27;87051;-48
2022/06/14 01:24:53;;;;;;;;;;;19.90;73.20;;;;;;5043843;28;88138;-48
2022/06/14 01:27:20;;;;;;;;;;;19.80;73.20;;;;;;5043889;28;88144;-45
2022/06/14 01:29:47;;;;;;;;;;;19.90;73.20;;;;;;5046547;28;89782;-46
2022/06/14 01:32:14;;;;;;;;;;;19.90;73.10;;;;;;5044430;28;86924;-45
2022/06/14 01:34:41;;;;;;;;;;;19.80;73.10;;;;;;5044392;27;87360;-47
2022/06/14 01:37:07;;;;;;;;;;;19.80;73.10;;;;;;5043967;28;87142;-48
2022/06/14 01:39:32;;;;;;;;;;;19.80;73.10;;;;;;5043927;28;86993;-49
2022/06/14 01:42:04;;;;;;;;;;;19.80;73.20;;;;;;5044440;27;87319;-47
2022/06/14 01:44:41;;;;;;;;;;;19.80;73.10;;;;;;5044404;28;87205;-46
2022/06/14 01:47:20;;;;;;;;;;;19.80;73.10;;;;;;5044338;28;87176;-49
2022/06/14 01:52:46;;;;;;;;;;;19.80;73.10;;;;;;5045924;28;88220;-45
2022/06/14 01:55:17;;;;;;;;;;;19.80;73.10;;;;;;5044073;27;87508;-47
2022/06/14 01:57:51;;;;;;;;;;;19.70;73.10;;;;;;5043831;28;87895;-47
2022/06/14 02:00:22;;;;;;;;;;;19.70;73.20;;;;;;5043616;28;87009;-45
2022/06/14 02:02:48;;;;;;;;;;;19.70;73.10;;;;;;5044353;28;86918;-46
2022/06/14 02:05:13;;;;;;;;;;;19.70;73.10;;;;;;5043518;28;88160;-46
2022/06/14 02:07:39;;;;;;;;;;;19.70;73.20;;;;;;5043824;28;87039;-46
2022/06/14 02:10:11;;;;;;;;;;;19.70;73.10;;;;;;5044316;28;87302;-47
2022/06/14 02:12:46;;;;;;;;;;;19.70;73.20;;;;;;5042782;28;88011;-46
2022/06/14 02:15:17;;;;;;;;;;;19.70;73.10;;;;;;5046841;28;87274;-47
2022/06/14 02:17:54;;;;;;;;;;;19.70;73.20;;;;;;5042627;28;89005;-46
2022/06/14 02:20:22;;;;;;;;;;;19.60;73.10;;;;;;5043904;27;87047;-47
2022/06/14 02:22:52;;;;;;;;;;;19.70;73.10;;;;;;5043617;28;87441;-46
2022/06/14 02:25:21;;;;;;;;;;;19.60;73.20;;;;;;5042823;28;88136;-47
2022/06/14 02:27:57;;;;;;;;;;;19.60;73.10;;;;;;5043538;28;87319;-48
2022/06/14 02:30:27;;;;;;;;;;;19.60;73.10;;;;;;5043558;27;87502;-47
2022/06/14 02:32:56;;;;;;;;;;;19.60;73.10;;;;;;5043342;27;88146;-48
2022/06/14 02:35:24;;;;;;;;;;;19.60;73.10;;;;;;5044165;28;86315;-46
2022/06/14 02:37:56;;;;;;;;;;;19.50;73.20;;;;;;5045944;28;87039;-45
2022/06/14 02:40:25;;;;;;;;;;;19.50;73.20;;;;;;5041931;28;87066;-47
2022/06/14 02:43:03;;;;;;;;;;;19.50;73.20;;;;;;5042720;28;87917;-46
2022/06/14 02:45:55;;;;;;;;;;;19.50;73.20;;;;;;5042783;28;87935;-47
2022/06/14 02:48:23;;;;;;;;;;;19.50;73.20;;;;;;5040840;28;87194;-45
2022/06/14 02:50:55;;;;;;;;;;;19.50;73.20;;;;;;5043379;28;87387;-45
2022/06/14 02:53:46;;;;;;;;;;;19.50;73.20;;;;;;5042618;28;87957;-46
2022/06/14 02:56:15;;;;;;;;;;;19.50;73.20;;;;;;5040549;28;86865;-48
2022/06/14 02:58:40;;;;;;;;;;;19.40;73.20;;;;;;5045651;28;87912;-46
2022/06/14 03:01:08;;;;;;;;;;;19.40;73.80;;;;;;5043094;28;86274;-47
2022/06/14 03:03:39;;;;;;;;;;;19.40;73.30;;;;;;5042958;27;87006;-47
2022/06/14 03:06:04;;;;;;;;;;;19.40;73.20;;;;;;5042413;28;87067;-46
2022/06/14 03:08:34;;;;;;;;;;;19.50;73.30;;;;;;5042217;28;88038;-47
2022/06/14 03:11:02;;;;;;;;;;;19.40;73.20;;;;;;5042441;27;88388;-47
2022/06/14 03:13:47;;;;;;;;;;;19.40;73.20;;;;;;5042658;28;88200;-51
2022/06/14 03:16:12;;;;;;;;;;;19.30;73.30;;;;;;5043124;28;87407;-47
2022/06/14 03:18:45;;;;;;;;;;;19.30;73.30;;;;;;5043015;28;86932;-47
2022/06/14 03:21:18;;;;;;;;;;;19.40;73.30;;;;;;5045501;28;87907;-47
2022/06/14 03:23:46;;;;;;;;;;;19.30;73.20;;;;;;5042649;28;87200;-45
2022/06/14 03:26:30;;;;;;;;;;;19.30;73.30;;;;;;5042906;28;87093;-45
2022/06/14 03:29:01;;;;;;;;;;;19.30;73.20;;;;;;5042990;27;87220;-45
2022/06/14 03:31:31;;;;;;;;;;;19.30;73.20;;;;;;5042474;27;87428;-46
2022/06/14 03:34:00;;;;;;;;;;;19.30;73.30;;;;;;5041483;28;89084;-49
2022/06/14 03:36:26;;;;;;;;;;;19.30;73.30;;;;;;5042380;28;87091;-46
2022/06/14 03:38:55;;;;;;;;;;;19.30;73.20;;;;;;5042659;27;87527;-47
2022/06/14 03:41:22;;;;;;;;;;;19.30;73.30;;;;;;5042166;28;88018;-51
2022/06/14 03:43:48;;;;;;;;;;;19.30;73.40;;;;;;5045399;28;87102;-46
2022/06/14 03:46:16;;;;;;;;;;;19.20;73.40;;;;;;5042023;28;88001;-47
2022/06/14 03:48:43;;;;;;;;;;;19.20;73.30;;;;;;5042168;28;87056;-50
2022/06/14 03:51:27;;;;;;;;;;;19.20;73.40;;;;;;5042856;27;87165;-45
2022/06/14 03:53:59;;;;;;;;;;;19.20;73.40;;;;;;5041909;27;87956;-47
2022/06/14 03:56:39;;;;;;;;;;;19.20;73.50;;;;;;5042104;28;87194;-49
2022/06/14 03:59:11;;;;;;;;;;;19.10;73.50;;;;;;5041700;28;87956;-45
2022/06/14 04:02:06;;;;;;;;;;;19.10;73.50;;;;;;5041447;28;89459;-45
2022/06/14 04:04:50;;;;;;;;;;;19.10;73.50;;;;;;5032592;28;87122;-48
2022/06/14 04:07:20;;;;;;;;;;;19.10;73.40;;;;;;5044764;27;88705;-46
2022/06/14 04:09:51;;;;;;;;;;;19.10;73.40;;;;;;5041943;27;87045;-47
2022/06/14 04:12:32;;;;;;;;;;;19.20;73.40;;;;;;5041660;28;87253;-47
2022/06/14 04:15:04;;;;;;;;;;;19.10;73.40;;;;;;5041612;28;89390;-50
2022/06/14 04:17:35;;;;;;;;;;;19.10;73.40;;;;;;5042813;28;86388;-47
2022/06/14 04:20:01;;;;;;;;;;;19.10;73.40;;;;;;5042313;28;86897;-45
2022/06/14 04:22:38;;;;;;;;;;;19.10;73.30;;;;;;5041338;28;90065;-47
2022/06/14 04:25:07;;;;;;;;;;;19.10;73.20;;;;;;5041452;28;87955;-45
2022/06/14 04:27:37;;;;;;;;;;;19.10;73.20;;;;;;5042027;28;88340;-48
2022/06/14 04:30:11;;;;;;;;;;;19.10;73.50;;;;;;5044438;28;88772;-46
2022/06/14 04:32:43;;;;;;;;;;;19.10;73.40;;;;;;5042073;28;86910;-47
2022/06/14 04:35:18;;;;;;;;;;;19.10;73.50;;;;;;5041563;28;88131;-48
2022/06/14 04:38:05;;;;;;;;;;;19.10;73.60;;;;;;5041795;28;87211;-46
2022/06/14 04:40:37;;;;;;;;;;;19.00;73.60;;;;;;5041726;27;87601;-46
2022/06/14 04:43:18;;;;;;;;;;;19.00;73.60;;;;;;5041859;27;88991;-48
2022/06/14 04:45:47;;;;;;;;;;;19.00;73.80;;;;;;5044756;28;87074;-46
2022/06/14 04:48:23;;;;;;;;;;;19.00;73.80;;;;;;5045100;27;87470;-47
2022/06/14 04:50:55;;;;;;;;;;;18.90;73.80;;;;;;5043866;28;89678;-47
2022/06/14 04:53:26;;;;;;;;;;;18.90;73.80;;;;;;5047966;28;87138;-48
2022/06/14 04:55:52;;;;;;;;;;;18.90;73.80;;;;;;5044740;28;88243;-45
2022/06/14 04:58:24;;;;;;;;;;;18.90;73.70;;;;;;5044757;28;87129;-49
2022/06/14 05:00:53;;;;;;;;;;;18.90;73.70;;;;;;5044773;27;87405;-50
2022/06/14 05:03:24;;;;;;;;;;;18.90;73.90;;;;;;5044526;28;88084;-47
2022/06/14 05:05:53;;;;;;;;;;;18.90;73.90;;;;;;5044726;28;87110;-45
2022/06/14 05:08:23;;;;;;;;;;;18.90;73.80;;;;;;5045133;27;87349;-48
2022/06/14 05:10:51;;;;;;;;;;;18.90;73.80;;;;;;5044001;28;89308;-48
2022/06/14 05:13:21;;;;;;;;;;;18.90;73.80;;;;;;5047730;28;87604;-46
2022/06/14 05:15:49;;;;;;;;;;;18.90;74.00;;;;;;5043362;28;90262;-46
2022/06/14 05:18:19;;;;;;;;;;;18.90;73.90;;;;;;5044737;28;87121;-46
2022/06/14 05:20:45;;;;;;;;;;;18.90;73.80;;;;;;5044530;27;87507;-48
2022/06/14 05:23:17;;;;;;;;;;;18.90;73.70;;;;;;5043964;28;89375;-48
2022/06/14 05:25:59;;;;;;;;;;;18.90;73.80;;;;;;5044623;28;87590;-48
2022/06/14 05:28:32;;;;;;;;;;;18.90;73.90;;;;;;5044725;27;87497;-46
2022/06/14 05:31:16;;;;;;;;;;;18.90;73.90;;;;;;5044092;28;88224;-48
2022/06/14 05:33:44;;;;;;;;;;;18.90;73.90;;;;;;5044724;28;86487;-48
2022/06/14 05:36:18;;;;;;;;;;;18.90;73.90;;;;;;5046995;28;86959;-48
2022/06/14 05:39:06;;;;;;;;;;;18.90;73.90;;;;;;5044330;28;87091;-47
2022/06/14 05:41:38;;;;;;;;;;;18.90;74.00;;;;;;5044217;27;88275;-47
2022/06/14 05:44:07;;;;;;;;;;;18.90;73.80;;;;;;5043602;28;88092;-46
2022/06/14 05:46:32;;;;;;;;;;;18.90;73.80;;;;;;5044218;28;87104;-48
2022/06/14 05:49:00;;;;;;;;;;;18.80;73.90;;;;;;5044362;28;87244;-46
2022/06/14 05:51:31;;;;;;;;;;;18.90;73.80;;;;;;5043794;28;88348;-48
2022/06/14 05:53:59;;;;;;;;;;;18.90;73.90;;;;;;5043788;28;87017;-48
2022/06/14 05:56:31;;;;;;;;;;;18.90;73.90;;;;;;5043724;27;87464;-47
2022/06/14 05:58:56;;;;;;;;;;;18.90;73.90;;;;;;5046890;28;88728;-46
2022/06/14 06:01:28;;;;;;;;;;;18.90;73.90;;;;;;5044067;28;87688;-47
2022/06/14 06:03:58;;;;;;;;;;;18.80;73.80;;;;;;5043496;28;89830;-45
2022/06/14 06:06:32;;;;;;;;;;;18.90;73.90;;;;;;5043070;28;88093;-45
2022/06/14 06:09:02;;;;;;;;;;;18.90;73.80;;;;;;5044016;27;88274;-46
2022/06/14 06:11:36;;;;;;;;;;;18.90;74.40;;;;;;5043158;28;87364;-48
2022/06/14 06:14:01;;;;;;;;;;;18.90;73.80;;;;;;5043768;28;87710;-46
2022/06/14 06:16:37;;;;;;;;;;;18.90;73.80;;;;;;5044011;28;87401;-47
2022/06/14 06:19:14;;;;;;;;;;;18.90;73.90;;;;;;5043381;28;87980;-48
2022/06/14 06:21:52;;;;;;;;;;;18.90;73.80;;;;;;5046580;28;87015;-48
2022/06/14 06:24:32;;;;;;;;;;;18.90;73.80;;;;;;5043508;28;87806;-47
2022/06/14 06:27:00;;;;;;;;;;;18.90;73.80;;;;;;5043751;28;87521;-48
2022/06/14 06:29:45;;;;;;;;;;;18.90;74.00;;;;;;5043529;27;87408;-45
2022/06/14 06:32:10;;;;;;;;;;;18.90;73.90;;;;;;5042349;27;88983;-47
2022/06/14 06:34:36;;;;;;;;;;;18.90;73.70;;;;;;5043585;28;87116;-47
2022/06/14 06:37:25;;;;;;;;;;;18.90;73.80;;;;;;5043589;27;86982;-46
2022/06/14 06:39:51;;;;;;;;;;;18.90;73.70;;;;;;5036454;28;88305;-45
2022/06/14 06:42:28;;;;;;;;;;;18.90;73.80;;;;;;5043176;28;87242;-47
2022/06/14 06:44:55;;;;;;;;;;;18.90;73.70;;;;;;5045843;28;87653;-47
2022/06/14 06:47:21;;;;;;;;;;;18.90;73.60;;;;;;5043416;28;87592;-45
2022/06/14 06:49:55;;;;;;;;;;;18.90;73.70;;;;;;5043996;28;87239;-48
2022/06/14 06:52:24;;;;;;;;;;;18.90;73.70;;;;;;5042540;28;87997;-47
2022/06/14 06:54:58;;;;;;;;;;;18.90;73.70;;;;;;5042946;28;87099;-48
2022/06/14 06:57:25;;;;;;;;;;;18.90;73.60;;;;;;5042475;27;87943;-46
2022/06/14 06:59:51;;;;;;;;;;;19.00;73.60;;;;;;5042798;28;88222;-48
2022/06/14 07:02:20;;;;;;;;;;;19.00;73.50;;;;;;5042794;28;86897;-48
2022/06/14 07:05:03;;;;;;;;;;;19.00;73.40;;;;;;5045321;27;89018;-47
2022/06/14 07:07:41;;;;;;;;;;;19.00;73.90;;;;;;5042250;27;87130;-47
2022/06/14 07:10:14;;;;;;;;;;;19.00;73.50;;;;;;5042993;28;87352;-46
2022/06/14 07:12:47;;;;;;;;;;;19.00;73.40;;;;;;5042370;28;88238;-47
2022/06/14 07:15:18;;;;;;;;;;;19.00;73.40;;;;;;5043338;28;86750;-46
2022/06/14 07:17:47;;;;;;;;;;;19.10;73.20;;;;;;5042756;27;87125;-46
2022/06/14 07:20:30;;;;;;;;;;;19.10;73.20;;;;;;5042235;28;88010;-46
2022/06/14 07:23:10;;;;;;;;;;;19.10;73.20;;;;;;5042366;28;87879;-47
2022/06/14 07:25:40;;;;;;;;;;;19.10;73.20;;;;;;5042817;27;88139;-48
2022/06/14 07:28:15;;;;;;;;;;;19.10;73.20;;;;;;5045199;28;89372;-48
2022/06/14 07:30:49;;;;;;;;;;;19.10;73.20;;;;;;5042702;27;87315;-47
2022/06/14 07:33:16;;;;;;;;;;;19.10;73.10;;;;;;5042072;28;89576;-47
2022/06/14 07:35:47;;;;;;;;;;;19.20;73.10;;;;;;5042736;28;87077;-45
2022/06/14 07:38:15;;;;;;;;;;;19.10;73.00;;;;;;5042602;28;87583;-46
2022/06/14 07:40:41;;;;;;;;;;;19.20;73.00;;;;;;5042633;28;88675;-49
2022/06/14 07:43:11;;;;;;;;;;;19.10;73.00;;;;;;5042244;28;87960;-45
2022/06/14 07:45:40;;;;;;;;;;;19.20;73.00;;;;;;5042257;27;89124;-46
2022/06/14 07:48:12;;;;;;;;;;;19.20;73.20;;;;;;5041322;28;89233;-45
2022/06/14 07:50:50;;;;;;;;;;;19.20;73.00;;;;;;5045206;28;87011;-48
2022/06/14 07:53:16;;;;;;;;;;;19.20;73.10;;;;;;5041878;28;88019;-46
2022/06/14 07:55:50;;;;;;;;;;;19.10;73.10;;;;;;5042193;28;87504;-48
2022/06/14 07:58:22;;;;;;;;;;;19.10;73.10;;;;;;5042502;27;87504;-46
2022/06/14 08:01:08;;;;;;;;;;;19.10;73.10;;;;;;5041819;28;87531;-47
2022/06/14 08:03:41;;;;;;;;;;;19.10;73.30;;;;;;5042487;28;86916;-51
2022/06/14 08:06:13;;;;;;;;;;;19.10;73.30;;;;;;5042395;28;87433;-48
2022/06/14 08:08:41;;;;;;;;;;;19.10;73.20;;;;;;5041783;28;87860;-48
2022/06/14 08:11:13;;;;;;;;;;;19.10;73.30;;;;;;5041436;28;87128;-46
2022/06/14 08:13:42;;;;;;;;;;;19.10;73.30;;;;;;5044222;27;87921;-48
2022/06/14 08:16:09;;;;;;;;;;;19.10;73.40;;;;;;5041974;28;86856;-45
2022/06/14 08:18:41;;;;;;;;;;;19.10;73.30;;;;;;5044013;27;87375;-46
2022/06/14 08:21:06;;;;;;;;;;;19.10;73.30;;;;;;5045257;28;88018;-46
2022/06/14 08:23:44;;;;;;;;;;;19.10;73.30;;;;;;5045562;28;87335;-46
2022/06/14 08:26:18;;;;;;;;;;;19.10;73.50;;;;;;5045667;28;87525;-48
2022/06/14 08:28:47;;;;;;;;;;;19.10;73.80;;;;;;5043634;28;90781;-47
2022/06/14 08:31:28;;;;;;;;;;;19.10;73.90;;;;;;5045826;28;86404;-45
2022/06/14 08:33:57;;;;;;;;;;;19.10;73.70;;;;;;5045273;28;88526;-46
2022/06/14 08:36:30;;;;;;;;;;;19.10;73.50;;;;;;5047729;28;87887;-47
2022/06/14 08:38:58;;;;;;;;;;;19.10;73.60;;;;;;5044494;27;87971;-46
2022/06/14 08:41:39;;;;;;;;;;;19.10;73.40;;;;;;5044701;28;89466;-47
2022/06/14 08:44:09;;;;;;;;;;;19.10;73.50;;;;;;5045286;28;86876;-46
2022/06/14 08:46:44;;;;;;;;;;;19.10;73.50;;;;;;5044873;27;88856;-46
2022/06/14 08:49:21;;;;;;;;;;;19.10;73.60;;;;;;5044675;28;88021;-46
2022/06/14 08:51:55;;;;;;;;;;;19.10;73.80;;;;;;5045048;28;87076;-48
2022/06/14 08:54:21;;;;;;;;;;;19.10;74.70;;;;;;5044714;28;87323;-48
2022/06/14 08:56:49;;;;;;;;;;;19.10;74.20;;;;;;5045559;28;87409;-45
2022/06/14 08:59:33;;;;;;;;;;;19.10;74.30;;;;;;5047909;28;87154;-48
2022/06/14 09:02:18;;;;;;;;;;;19.10;74.30;;;;;;5044785;27;88304;-47
2022/06/14 09:05:01;;;;;;;;;;;19.10;74.00;;;;;;5044210;28;87932;-48
2022/06/14 09:07:30;;;;;;;;;;;19.10;74.20;;;;;;5044625;28;89793;-46
2022/06/14 09:09:58;;;;;;;;;;;19.20;74.00;;;;;;5044455;28;87153;-49
2022/06/14 09:12:26;;;;;;;;;;;19.10;73.80;;;;;;5044746;28;87136;-48
2022/06/14 09:14:57;;;;;;;;;;;19.10;74.00;;;;;;5044912;28;87499;-47
2022/06/14 09:17:35;;;;;;;;;;;19.20;74.50;;;;;;5044250;28;88212;-46
2022/06/14 09:20:01;;;;;;;;;;;19.20;74.50;;;;;;5047508;28;88347;-50
2022/06/14 09:22:35;;;;;;;;;;;19.20;74.10;;;;;;5044562;28;88782;-51
2022/06/14 09:25:01;;;;;;;;;;;19.20;74.30;;;;;;5044582;28;87106;-51
2022/06/14 09:27:46;;;;;;;;;;;19.20;74.40;;;;;;5044671;28;87791;-48
2022/06/14 09:30:15;;;;;;;;;;;19.20;74.30;;;;;;5042867;28;87952;-48
2022/06/14 09:35:49;;;;;;;;;;;19.20;74.80;;;;;;5044419;28;87017;-48
2022/06/14 09:38:21;;;;;;;;;;;19.20;74.40;;;;;;5043827;28;87225;-51
2022/06/14 09:40:57;;;;;;;;;;;19.20;75.30;;;;;;5044564;28;87065;-49
2022/06/14 09:43:33;;;;;;;;;;;19.20;75.20;;;;;;5046772;27;86979;-48
2022/06/14 09:46:01;;;;;;;;;;;19.20;75.30;;;;;;5044355;28;87008;-48
2022/06/14 09:48:29;;;;;;;;;;;19.20;75.10;;;;;;5044669;28;87402;-46
2022/06/14 09:51:14;;;;;;;;;;;19.20;75.30;;;;;;5043735;28;86955;-46
2022/06/14 09:53:53;;;;;;;;;;;19.20;75.10;;;;;;5044070;27;87234;-47
2022/06/14 09:56:27;;;;;;;;;;;19.20;75.00;;;;;;5043510;28;87969;-48
2022/06/14 09:59:14;;;;;;;;;;;19.30;75.20;;;;;;5043838;28;87781;-48
2022/06/14 10:01:59;;;;;;;;;;;19.20;75.10;;;;;;5044105;28;87052;-47
2022/06/14 10:04:33;;;;;;;;;;;19.30;75.40;;;;;;5044272;27;87121;-46
2022/06/14 10:07:10;;;;;;;;;;;19.30;75.20;;;;;;5046816;28;88264;-49
2022/06/14 10:09:42;;;;;;;;;;;19.30;75.20;;;;;;5044111;28;87657;-46
2022/06/14 10:12:19;;;;;;;;;;;19.30;74.90;;;;;;5042744;28;89398;-46
2022/06/14 10:15:08;;;;;;;;;;;19.30;75.40;;;;;;5044385;28;86245;-47
2022/06/14 10:17:33;;;;;;;;;;;19.30;75.30;;;;;;5023193;27;87140;-47
2022/06/14 10:20:02;;;;;;;;;;;19.30;75.10;;;;;;5043324;28;87944;-47
2022/06/14 10:22:46;;;;;;;;;;;19.30;75.00;;;;;;5042910;28;88106;-48
2022/06/14 10:25:35;;;;;;;;;;;19.40;75.30;;;;;;5043652;27;87472;-47
2022/06/14 10:28:13;;;;;;;;;;;19.40;75.50;;;;;;5043395;28;87968;-48
2022/06/14 10:30:57;;;;;;;;;;;19.40;75.10;;;;;;5046376;28;87042;-48
2022/06/14 10:33:35;;;;;;;;;;;19.40;75.30;;;;;;5043630;28;87411;-48
2022/06/14 10:36:00;;;;;;;;;;;19.50;75.00;;;;;;5043197;28;87720;-48
2022/06/14 10:38:44;;;;;;;;;;;19.50;75.10;;;;;;5043683;28;87387;-47
2022/06/14 10:41:28;;;;;;;;;;;19.50;75.30;;;;;;5042581;27;87300;-47
2022/06/14 10:44:04;;;;;;;;;;;19.50;75.10;;;;;;5043485;28;87085;-48
2022/06/14 10:46:33;;;;;;;;;;;19.60;74.80;;;;;;5043359;27;88774;-48
2022/06/14 10:49:14;;;;;;;;;;;19.60;75.10;;;;;;5042088;28;88938;-49
2022/06/14 10:51:45;;;;;;;;;;;19.60;74.80;;;;;;5043331;28;87078;-46
2022/06/14 10:54:16;;;;;;;;;;;19.60;74.90;;;;;;5045801;28;87418;-45
2022/06/14 10:57:07;;;;;;;;;;;19.60;75.00;;;;;;5043073;28;86925;-46
2022/06/14 10:59:33;;;;;;;;;;;19.60;75.10;;;;;;5040755;28;87207;-46
2022/06/14 11:01:58;;;;;;;;;;;19.60;75.20;;;;;;5042858;28;87991;-48
2022/06/14 11:04:27;;;;;;;;;;;19.60;74.80;;;;;;5043241;28;87116;-47
2022/06/14 11:06:52;;;;;;;;;;;19.70;74.90;;;;;;5043598;28;87424;-48
2022/06/14 11:09:20;;;;;;;;;;;19.70;75.10;;;;;;5042727;28;87982;-47
2022/06/14 11:11:54;;;;;;;;;;;19.70;74.70;;;;;;5042379;28;87114;-46
2022/06/14 11:14:25;;;;;;;;;;;19.70;75.20;;;;;;5042036;27;88943;-51
2022/06/14 11:16:53;;;;;;;;;;;19.70;75.10;;;;;;5045694;28;88019;-47
2022/06/14 11:19:37;;;;;;;;;;;19.70;75.60;;;;;;5042864;28;87448;-48
2022/06/14 11:22:03;;;;;;;;;;;19.70;75.00;;;;;;5042728;28;87142;-47
2022/06/14 11:24:39;;;;;;;;;;;19.70;74.90;;;;;;5042577;28;87103;-47
2022/06/14 11:27:10;;;;;;;;;;;19.70;75.00;;;;;;5042651;27;87428;-47
2022/06/14 11:29:54;;;;;;;;;;;19.70;75.10;;;;;;5042300;28;88086;-48
2022/06/14 11:32:22;;;;;;;;;;;19.70;75.00;;;;;;5043266;27;86335;-48
2022/06/14 11:34:56;;;;;;;;;;;19.80;75.10;;;;;;5042786;28;86897;-49
2022/06/14 11:37:28;;;;;;;;;;;19.80;75.00;;;;;;5045040;28;88063;-48
2022/06/14 11:40:13;;;;;;;;;;;19.80;74.60;;;;;;5042117;28;87967;-45
2022/06/14 11:42:49;;;;;;;;;;;19.80;74.90;;;;;;5033778;28;87350;-46
2022/06/14 11:45:35;;;;;;;;;;;19.80;74.70;;;;;;5042471;28;87028;-47
2022/06/14 11:48:15;;;;;;;;;;;19.90;74.80;;;;;;5042721;27;87620;-49
2022/06/14 11:50:41;;;;;;;;;;;19.90;74.90;;;;;;5042135;28;87936;-45
2022/06/14 11:53:06;;;;;;;;;;;19.80;74.80;;;;;;5043391;27;87255;-45
2022/06/14 11:55:41;;;;;;;;;;;19.90;75.00;;;;;;5045942;28;87382;-47
2022/06/14 11:58:13;;;;;;;;;;;19.90;74.70;;;;;;5045870;28;87562;-47
2022/06/14 12:00:51;;;;;;;;;;;19.90;74.70;;;;;;5048752;28;87222;-46
2022/06/14 12:03:19;;;;;;;;;;;19.90;74.70;;;;;;5045559;28;88018;-47
2022/06/14 12:05:50;;;;;;;;;;;19.90;74.60;;;;;;5045250;28;88085;-47
2022/06/14 12:08:35;;;;;;;;;;;20.00;74.70;;;;;;5045636;27;89299;-47
2022/06/14 12:11:12;;;;;;;;;;;20.00;74.60;;;;;;5044990;27;87997;-45
2022/06/14 12:13:56;;;;;;;;;;;20.00;74.50;;;;;;5045781;28;87053;-46
2022/06/14 12:16:28;;;;;;;;;;;20.00;74.50;;;;;;5045801;27;87545;-49
2022/06/14 12:19:00;;;;;;;;;;;20.00;74.50;;;;;;5045341;28;87970;-45
2022/06/14 12:21:46;;;;;;;;;;;20.00;74.60;;;;;;5045304;28;87072;-47
2022/06/14 12:24:17;;;;;;;;;;;20.00;74.60;;;;;;5047434;28;88206;-46
2022/06/14 12:26:59;;;;;;;;;;;20.00;74.40;;;;;;5045284;28;86917;-48
2022/06/14 12:29:35;;;;;;;;;;;20.00;74.30;;;;;;5045173;27;88912;-47
2022/06/14 12:32:07;;;;;;;;;;;20.10;74.60;;;;;;5044616;28;87985;-48
2022/06/14 12:34:45;;;;;;;;;;;20.10;74.40;;;;;;5045214;28;87127;-50
2022/06/14 12:37:19;;;;;;;;;;;20.10;74.50;;;;;;5045385;27;88062;-46
2022/06/14 12:39:47;;;;;;;;;;;20.10;74.20;;;;;;5044975;28;88164;-45
2022/06/14 12:42:15;;;;;;;;;;;20.10;74.40;;;;;;5045267;28;87151;-46
2022/06/14 12:45:01;;;;;;;;;;;20.10;74.40;;;;;;5045465;28;87461;-46
2022/06/14 12:47:50;;;;;;;;;;;20.10;74.30;;;;;;5047304;28;88249;-49
2022/06/14 12:50:22;;;;;;;;;;;20.20;74.40;;;;;;5045820;27;87343;-47
2022/06/14 12:52:51;;;;;;;;;;;20.20;73.90;;;;;;5044841;28;87127;-46
2022/06/14 12:55:22;;;;;;;;;;;20.20;74.10;;;;;;5044882;28;87179;-46
2022/06/14 12:57:50;;;;;;;;;;;20.20;74.20;;;;;;5044122;27;88840;-46
2022/06/14 13:00:20;;;;;;;;;;;20.20;74.00;;;;;;5044632;28;87195;-48
2022/06/14 13:02:53;;;;;;;;;;;20.30;74.20;;;;;;5044762;28;87149;-48
2022/06/14 13:05:21;;;;;;;;;;;20.30;74.00;;;;;;5043512;27;87170;-47
2022/06/14 13:07:46;;;;;;;;;;;20.30;74.10;;;;;;5044094;28;89680;-48
2022/06/14 13:10:26;;;;;;;;;;;20.30;74.10;;;;;;5046348;28;87159;-47
2022/06/14 13:13:09;;;;;;;;;;;20.30;74.10;;;;;;5043565;28;89985;-47
2022/06/14 13:15:38;;;;;;;;;;;20.30;74.20;;;;;;5045264;28;86227;-46
2022/06/14 13:18:04;;;;;;;;;;;20.40;73.90;;;;;;5044496;28;88243;-47
2022/06/14 13:20:44;;;;;;;;;;;20.40;73.90;;;;;;5044401;28;88043;-47
2022/06/14 13:23:22;;;;;;;;;;;20.40;74.00;;;;;;5043513;28;88124;-45
2022/06/14 13:26:01;;;;;;;;;;;20.40;73.90;;;;;;5044082;27;89052;-47
2022/06/14 13:28:45;;;;;;;;;;;20.50;73.60;;;;;;5044354;28;88283;-45
2022/06/14 13:31:16;;;;;;;;;;;20.50;73.40;;;;;;5044362;28;87303;-47
2022/06/14 13:33:48;;;;;;;;;;;20.50;73.70;;;;;;5046999;28;87388;-47
2022/06/14 13:36:19;;;;;;;;;;;20.50;73.50;;;;;;5044375;28;87165;-48
2022/06/14 13:38:51;;;;;;;;;;;20.50;73.70;;;;;;5044157;27;87958;-46
2022/06/14 13:41:19;;;;;;;;;;;20.60;73.60;;;;;;5044229;28;87370;-46
2022/06/14 13:43:50;;;;;;;;;;;20.60;73.40;;;;;;5044325;28;87116;-45
2022/06/14 13:46:36;;;;;;;;;;;20.60;73.30;;;;;;5044100;28;88982;-46
2022/06/14 13:49:20;;;;;;;;;;;20.60;73.80;;;;;;5034423;28;89895;-45
2022/06/14 13:51:51;;;;;;;;;;;20.50;73.70;;;;;;5044310;27;87225;-47
2022/06/14 13:54:26;;;;;;;;;;;20.50;73.70;;;;;;5046443;27;87416;-46
2022/06/14 13:57:10;;;;;;;;;;;20.50;73.80;;;;;;5044182;28;86894;-46
2022/06/14 13:59:36;;;;;;;;;;;20.50;73.80;;;;;;5043916;28;87885;-47
2022/06/14 14:02:05;;;;;;;;;;;20.50;73.90;;;;;;5043457;28;89303;-46
2022/06/14 14:04:30;;;;;;;;;;;20.50;74.20;;;;;;5044075;28;87110;-47
2022/06/14 14:07:03;;;;;;;;;;;20.50;74.30;;;;;;5044429;27;87621;-46
2022/06/14 14:09:34;;;;;;;;;;;20.50;74.20;;;;;;5043504;28;89535;-47
2022/06/14 14:12:00;;;;;;;;;;;20.50;74.20;;;;;;5043308;28;87191;-46
2022/06/14 14:14:26;;;;;;;;;;;20.50;74.40;;;;;;5043375;27;88497;-46
2022/06/14 14:16:51;;;;;;;;;;;20.50;74.20;;;;;;5046109;28;87976;-46
2022/06/14 14:19:29;;;;;;;;;;;20.60;74.30;;;;;;5043716;28;86897;-46
2022/06/14 14:21:59;;;;;;;;;;;20.60;74.10;;;;;;5043285;28;89287;-49
2022/06/14 14:24:39;;;;;;;;;;;20.60;74.20;;;;;;5043435;27;87174;-45
2022/06/14 14:27:18;;;;;;;;;;;20.60;74.20;;;;;;5043544;27;87055;-45
2022/06/14 14:29:56;;;;;;;;;;;20.60;74.00;;;;;;5043239;28;88218;-46
2022/06/14 14:32:37;;;;;;;;;;;20.60;74.10;;;;;;5043914;28;86404;-45
2022/06/14 14:35:06;;;;;;;;;;;20.70;73.90;;;;;;5042871;27;88170;-47
2022/06/14 14:37:37;;;;;;;;;;;20.70;73.60;;;;;;5043050;28;88319;-45
2022/06/14 14:40:11;;;;;;;;;;;20.70;73.50;;;;;;5045870;28;87944;-45
2022/06/14 14:42:55;;;;;;;;;;;20.70;73.50;;;;;;5043045;28;89466;-46
2022/06/14 14:45:33;;;;;;;;;;;20.70;73.40;;;;;;5043176;28;87256;-47
2022/06/14 14:47:59;;;;;;;;;;;20.80;72.90;;;;;;5043638;27;87195;-45
2022/06/14 14:50:37;;;;;;;;;;;20.80;73.00;;;;;;5042745;28;89600;-50
2022/06/14 14:53:21;;;;;;;;;;;20.80;72.70;;;;;;5043201;28;87167;-46